sensor_id;sensor_type;location;lat;lon;timestamp;P1;durP1;ratioP1;P2;durP2;ratioP2
12410;SDS011;6269;51.044;13.692;2023-05-29T00:01:46;8.57;;;5.65;;
12410;SDS011;6269;51.044;13.692;2023-05-29T00:04:21;9.32;;;5.88;;
12410;SDS011;6269;51.044;13.692;2023-05-29T00:07:00;8.50;;;5.70;;
12410;SDS011;6269;51.044;13.692;2023-05-29T00:09:39;8.13;;;6.07;;
12410;SDS011;6269;51.044;13.692;2023-05-29T00:12:15;15.02;;;6.32;;
12410;SDS011;6269;51.044;13.692;2023-05-29T00:14:51;9.82;;;6.30;;
12410;SDS011;6269;51.044;13.692;2023-05-29T00:17:26;9.13;;;6.65;;
12410;SDS011;6269;51.044;13.692;2023-05-29T00:20:05;9.07;;;6.47;;
12410;SDS011;6269;51.044;13.692;2023-05-29T00:22:41;9.85;;;6.30;;
12410;SDS011;6269;51.044;13.692;2023-05-29T00:25:20;10.38;;;6.45;;
12410;SDS011;6269;51.044;13.692;2023-05-29T00:27:55;10.07;;;6.70;;
12410;SDS011;6269;51.044;13.692;2023-05-29T00:30:30;9.77;;;6.45;;
12410;SDS011;6269;51.044;13.692;2023-05-29T00:33:06;10.00;;;6.20;;
12410;SDS011;6269;51.044;13.692;2023-05-29T00:35:43;9.95;;;5.88;;
12410;SDS011;6269;51.044;13.692;2023-05-29T00:38:18;9.95;;;5.95;;
12410;SDS011;6269;51.044;13.692;2023-05-29T00:40:56;7.45;;;5.07;;
12410;SDS011;6269;51.044;13.692;2023-05-29T00:43:35;8.48;;;5.95;;
12410;SDS011;6269;51.044;13.692;2023-05-29T00:46:12;6.80;;;5.15;;
12410;SDS011;6269;51.044;13.692;2023-05-29T00:48:49;9.32;;;5.75;;
12410;SDS011;6269;51.044;13.692;2023-05-29T00:51:24;6.10;;;4.53;;
12410;SDS011;6269;51.044;13.692;2023-05-29T00:54:01;7.63;;;5.40;;
12410;SDS011;6269;51.044;13.692;2023-05-29T00:56:39;6.82;;;5.03;;
12410;SDS011;6269;51.044;13.692;2023-05-29T00:59:17;8.77;;;4.90;;
12410;SDS011;6269;51.044;13.692;2023-05-29T01:01:54;7.65;;;5.20;;
12410;SDS011;6269;51.044;13.692;2023-05-29T01:04:30;7.80;;;5.30;;
12410;SDS011;6269;51.044;13.692;2023-05-29T01:07:06;6.03;;;4.53;;
12410;SDS011;6269;51.044;13.692;2023-05-29T01:09:42;8.10;;;4.97;;
12410;SDS011;6269;51.044;13.692;2023-05-29T01:12:23;5.97;;;4.47;;
12410;SDS011;6269;51.044;13.692;2023-05-29T01:15:13;6.03;;;4.25;;
12410;SDS011;6269;51.044;13.692;2023-05-29T01:18:07;6.40;;;4.57;;
12410;SDS011;6269;51.044;13.692;2023-05-29T01:20:51;8.18;;;4.85;;
12410;SDS011;6269;51.044;13.692;2023-05-29T01:23:37;6.53;;;3.83;;
12410;SDS011;6269;51.044;13.692;2023-05-29T01:29:22;5.63;;;4.40;;
12410;SDS011;6269;51.044;13.692;2023-05-29T01:32:02;7.07;;;4.30;;
12410;SDS011;6269;51.044;13.692;2023-05-29T01:34:39;6.20;;;3.70;;
12410;SDS011;6269;51.044;13.692;2023-05-29T01:37:14;6.70;;;4.28;;
12410;SDS011;6269;51.044;13.692;2023-05-29T01:39:49;6.30;;;4.53;;
12410;SDS011;6269;51.044;13.692;2023-05-29T01:42:27;5.18;;;4.10;;
12410;SDS011;6269;51.044;13.692;2023-05-29T01:45:04;6.28;;;4.35;;
12410;SDS011;6269;51.044;13.692;2023-05-29T01:47:40;6.43;;;3.83;;
12410;SDS011;6269;51.044;13.692;2023-05-29T01:50:17;6.93;;;4.07;;
12410;SDS011;6269;51.044;13.692;2023-05-29T01:52:53;8.48;;;4.20;;
12410;SDS011;6269;51.044;13.692;2023-05-29T01:55:28;5.70;;;4.05;;
12410;SDS011;6269;51.044;13.692;2023-05-29T01:58:07;5.80;;;4.20;;
12410;SDS011;6269;51.044;13.692;2023-05-29T02:00:43;6.35;;;4.53;;
12410;SDS011;6269;51.044;13.692;2023-05-29T02:03:19;6.10;;;4.63;;
12410;SDS011;6269;51.044;13.692;2023-05-29T02:05:56;9.60;;;4.78;;
12410;SDS011;6269;51.044;13.692;2023-05-29T02:08:33;7.95;;;4.38;;
12410;SDS011;6269;51.044;13.692;2023-05-29T02:11:09;6.55;;;4.43;;
12410;SDS011;6269;51.044;13.692;2023-05-29T02:13:47;7.45;;;4.63;;
12410;SDS011;6269;51.044;13.692;2023-05-29T02:16:23;6.68;;;4.80;;
12410;SDS011;6269;51.044;13.692;2023-05-29T02:19:00;7.60;;;5.13;;
12410;SDS011;6269;51.044;13.692;2023-05-29T02:21:38;6.45;;;4.88;;
12410;SDS011;6269;51.044;13.692;2023-05-29T02:24:13;5.22;;;4.25;;
12410;SDS011;6269;51.044;13.692;2023-05-29T02:26:49;7.63;;;5.32;;
12410;SDS011;6269;51.044;13.692;2023-05-29T02:29:27;7.57;;;4.90;;
12410;SDS011;6269;51.044;13.692;2023-05-29T02:32:03;7.78;;;5.07;;
12410;SDS011;6269;51.044;13.692;2023-05-29T02:34:39;5.78;;;4.78;;
12410;SDS011;6269;51.044;13.692;2023-05-29T02:37:14;7.40;;;4.70;;
12410;SDS011;6269;51.044;13.692;2023-05-29T02:39:50;6.32;;;4.80;;
12410;SDS011;6269;51.044;13.692;2023-05-29T02:42:25;7.80;;;5.00;;
12410;SDS011;6269;51.044;13.692;2023-05-29T02:45:03;6.28;;;4.40;;
12410;SDS011;6269;51.044;13.692;2023-05-29T02:47:39;6.25;;;4.65;;
12410;SDS011;6269;51.044;13.692;2023-05-29T02:50:15;7.65;;;5.03;;
12410;SDS011;6269;51.044;13.692;2023-05-29T02:52:50;7.20;;;5.03;;
12410;SDS011;6269;51.044;13.692;2023-05-29T02:55:26;6.60;;;5.03;;
12410;SDS011;6269;51.044;13.692;2023-05-29T02:58:04;7.57;;;5.25;;
12410;SDS011;6269;51.044;13.692;2023-05-29T03:00:42;8.20;;;5.13;;
12410;SDS011;6269;51.044;13.692;2023-05-29T03:03:18;6.47;;;4.32;;
12410;SDS011;6269;51.044;13.692;2023-05-29T03:05:53;6.68;;;4.78;;
12410;SDS011;6269;51.044;13.692;2023-05-29T03:08:31;6.35;;;4.93;;
12410;SDS011;6269;51.044;13.692;2023-05-29T03:11:08;7.72;;;5.43;;
12410;SDS011;6269;51.044;13.692;2023-05-29T03:13:43;8.10;;;5.55;;
12410;SDS011;6269;51.044;13.692;2023-05-29T03:16:24;7.85;;;5.75;;
12410;SDS011;6269;51.044;13.692;2023-05-29T03:19:01;8.75;;;6.00;;
12410;SDS011;6269;51.044;13.692;2023-05-29T03:21:37;9.55;;;6.35;;
12410;SDS011;6269;51.044;13.692;2023-05-29T03:24:13;9.13;;;6.32;;
12410;SDS011;6269;51.044;13.692;2023-05-29T03:26:48;8.30;;;6.43;;
12410;SDS011;6269;51.044;13.692;2023-05-29T03:29:24;8.07;;;5.93;;
12410;SDS011;6269;51.044;13.692;2023-05-29T03:32:03;7.25;;;5.72;;
12410;SDS011;6269;51.044;13.692;2023-05-29T03:34:39;10.35;;;6.72;;
12410;SDS011;6269;51.044;13.692;2023-05-29T03:37:14;8.73;;;6.47;;
12410;SDS011;6269;51.044;13.692;2023-05-29T03:39:52;10.82;;;6.43;;
12410;SDS011;6269;51.044;13.692;2023-05-29T03:42:28;8.30;;;6.28;;
12410;SDS011;6269;51.044;13.692;2023-05-29T03:45:05;10.57;;;6.18;;
12410;SDS011;6269;51.044;13.692;2023-05-29T03:47:47;7.63;;;6.03;;
12410;SDS011;6269;51.044;13.692;2023-05-29T03:50:22;8.73;;;6.50;;
12410;SDS011;6269;51.044;13.692;2023-05-29T03:52:58;8.10;;;5.95;;
12410;SDS011;6269;51.044;13.692;2023-05-29T03:55:33;12.25;;;6.60;;
12410;SDS011;6269;51.044;13.692;2023-05-29T03:58:13;7.93;;;6.60;;
12410;SDS011;6269;51.044;13.692;2023-05-29T04:00:48;7.18;;;5.63;;
12410;SDS011;6269;51.044;13.692;2023-05-29T04:03:27;10.45;;;5.70;;
12410;SDS011;6269;51.044;13.692;2023-05-29T04:06:04;9.50;;;6.03;;
12410;SDS011;6269;51.044;13.692;2023-05-29T04:08:40;7.60;;;5.72;;
12410;SDS011;6269;51.044;13.692;2023-05-29T04:11:16;6.88;;;4.97;;
12410;SDS011;6269;51.044;13.692;2023-05-29T04:13:52;8.70;;;6.22;;
12410;SDS011;6269;51.044;13.692;2023-05-29T04:16:28;6.32;;;5.13;;
12410;SDS011;6269;51.044;13.692;2023-05-29T04:19:07;10.77;;;5.60;;
12410;SDS011;6269;51.044;13.692;2023-05-29T04:21:43;6.78;;;4.75;;
12410;SDS011;6269;51.044;13.692;2023-05-29T04:24:19;7.78;;;5.47;;
12410;SDS011;6269;51.044;13.692;2023-05-29T04:26:56;6.85;;;4.85;;
12410;SDS011;6269;51.044;13.692;2023-05-29T04:29:34;6.18;;;4.65;;
12410;SDS011;6269;51.044;13.692;2023-05-29T04:32:12;7.07;;;4.72;;
12410;SDS011;6269;51.044;13.692;2023-05-29T04:34:50;6.93;;;5.03;;
12410;SDS011;6269;51.044;13.692;2023-05-29T04:37:25;6.35;;;4.78;;
12410;SDS011;6269;51.044;13.692;2023-05-29T04:40:03;7.55;;;5.15;;
12410;SDS011;6269;51.044;13.692;2023-05-29T04:42:41;5.40;;;4.47;;
12410;SDS011;6269;51.044;13.692;2023-05-29T04:45:19;8.27;;;4.35;;
12410;SDS011;6269;51.044;13.692;2023-05-29T04:47:56;11.68;;;5.22;;
12410;SDS011;6269;51.044;13.692;2023-05-29T04:50:35;9.43;;;5.05;;
12410;SDS011;6269;51.044;13.692;2023-05-29T04:53:10;7.60;;;5.00;;
12410;SDS011;6269;51.044;13.692;2023-05-29T04:55:46;7.15;;;5.03;;
12410;SDS011;6269;51.044;13.692;2023-05-29T04:58:21;7.15;;;4.60;;
12410;SDS011;6269;51.044;13.692;2023-05-29T05:00:59;6.30;;;4.18;;
12410;SDS011;6269;51.044;13.692;2023-05-29T05:03:36;5.45;;;4.47;;
12410;SDS011;6269;51.044;13.692;2023-05-29T05:06:14;8.52;;;4.40;;
12410;SDS011;6269;51.044;13.692;2023-05-29T05:08:50;8.48;;;4.28;;
12410;SDS011;6269;51.044;13.692;2023-05-29T05:11:27;8.30;;;4.25;;
12410;SDS011;6269;51.044;13.692;2023-05-29T05:14:03;5.15;;;3.88;;
12410;SDS011;6269;51.044;13.692;2023-05-29T05:16:39;5.30;;;4.00;;
12410;SDS011;6269;51.044;13.692;2023-05-29T05:19:15;11.25;;;4.28;;
12410;SDS011;6269;51.044;13.692;2023-05-29T05:21:53;6.22;;;4.22;;
12410;SDS011;6269;51.044;13.692;2023-05-29T05:24:31;6.50;;;4.80;;
12410;SDS011;6269;51.044;13.692;2023-05-29T05:27:07;5.95;;;4.45;;
12410;SDS011;6269;51.044;13.692;2023-05-29T05:29:43;5.68;;;4.18;;
12410;SDS011;6269;51.044;13.692;2023-05-29T05:32:20;5.78;;;4.60;;
12410;SDS011;6269;51.044;13.692;2023-05-29T05:35:04;7.53;;;4.28;;
12410;SDS011;6269;51.044;13.692;2023-05-29T05:37:43;4.78;;;3.72;;
12410;SDS011;6269;51.044;13.692;2023-05-29T05:40:18;6.40;;;4.47;;
12410;SDS011;6269;51.044;13.692;2023-05-29T05:43:00;5.68;;;4.05;;
12410;SDS011;6269;51.044;13.692;2023-05-29T05:45:59;7.65;;;4.30;;
12410;SDS011;6269;51.044;13.692;2023-05-29T05:48:39;7.97;;;4.15;;
12410;SDS011;6269;51.044;13.692;2023-05-29T05:51:15;6.72;;;4.80;;
12410;SDS011;6269;51.044;13.692;2023-05-29T05:53:55;6.30;;;4.30;;
12410;SDS011;6269;51.044;13.692;2023-05-29T05:56:32;5.18;;;4.15;;
12410;SDS011;6269;51.044;13.692;2023-05-29T05:59:07;7.45;;;4.55;;
12410;SDS011;6269;51.044;13.692;2023-05-29T06:01:43;5.05;;;4.25;;
12410;SDS011;6269;51.044;13.692;2023-05-29T06:07:01;7.22;;;4.30;;
12410;SDS011;6269;51.044;13.692;2023-05-29T06:09:39;7.93;;;4.13;;
12410;SDS011;6269;51.044;13.692;2023-05-29T06:12:16;6.28;;;4.07;;
12410;SDS011;6269;51.044;13.692;2023-05-29T06:15:03;8.07;;;4.93;;
12410;SDS011;6269;51.044;13.692;2023-05-29T06:17:40;8.77;;;4.10;;
12410;SDS011;6269;51.044;13.692;2023-05-29T06:20:20;5.38;;;4.40;;
12410;SDS011;6269;51.044;13.692;2023-05-29T06:22:56;7.00;;;4.65;;
12410;SDS011;6269;51.044;13.692;2023-05-29T06:25:35;6.75;;;4.32;;
12410;SDS011;6269;51.044;13.692;2023-05-29T06:28:11;7.32;;;4.50;;
12410;SDS011;6269;51.044;13.692;2023-05-29T06:30:49;6.30;;;4.57;;
12410;SDS011;6269;51.044;13.692;2023-05-29T06:33:24;6.05;;;4.47;;
12410;SDS011;6269;51.044;13.692;2023-05-29T06:38:40;5.35;;;4.78;;
12410;SDS011;6269;51.044;13.692;2023-05-29T06:41:23;8.07;;;4.55;;
12410;SDS011;6269;51.044;13.692;2023-05-29T06:43:59;5.85;;;4.75;;
12410;SDS011;6269;51.044;13.692;2023-05-29T06:46:36;7.05;;;4.50;;
12410;SDS011;6269;51.044;13.692;2023-05-29T06:49:11;9.60;;;4.80;;
12410;SDS011;6269;51.044;13.692;2023-05-29T06:51:47;9.32;;;5.03;;
12410;SDS011;6269;51.044;13.692;2023-05-29T06:54:28;7.82;;;4.68;;
12410;SDS011;6269;51.044;13.692;2023-05-29T06:57:06;6.90;;;4.72;;
12410;SDS011;6269;51.044;13.692;2023-05-29T06:59:42;6.28;;;4.38;;
12410;SDS011;6269;51.044;13.692;2023-05-29T07:02:18;10.70;;;5.03;;
12410;SDS011;6269;51.044;13.692;2023-05-29T07:04:57;8.48;;;5.10;;
12410;SDS011;6269;51.044;13.692;2023-05-29T07:07:32;8.13;;;4.80;;
12410;SDS011;6269;51.044;13.692;2023-05-29T07:10:08;10.57;;;4.78;;
12410;SDS011;6269;51.044;13.692;2023-05-29T07:12:47;7.43;;;5.10;;
12410;SDS011;6269;51.044;13.692;2023-05-29T07:15:22;5.70;;;4.35;;
12410;SDS011;6269;51.044;13.692;2023-05-29T07:17:57;5.15;;;4.13;;
12410;SDS011;6269;51.044;13.692;2023-05-29T07:20:32;6.18;;;4.20;;
12410;SDS011;6269;51.044;13.692;2023-05-29T07:23:09;7.03;;;4.60;;
12410;SDS011;6269;51.044;13.692;2023-05-29T07:25:44;7.20;;;4.93;;
12410;SDS011;6269;51.044;13.692;2023-05-29T07:28:22;7.68;;;4.82;;
12410;SDS011;6269;51.044;13.692;2023-05-29T07:30:57;6.60;;;4.18;;
12410;SDS011;6269;51.044;13.692;2023-05-29T07:33:32;5.90;;;4.63;;
12410;SDS011;6269;51.044;13.692;2023-05-29T07:36:08;8.48;;;5.45;;
12410;SDS011;6269;51.044;13.692;2023-05-29T07:38:44;7.43;;;4.47;;
12410;SDS011;6269;51.044;13.692;2023-05-29T07:41:21;6.60;;;4.88;;
12410;SDS011;6269;51.044;13.692;2023-05-29T07:44:01;6.57;;;4.93;;
12410;SDS011;6269;51.044;13.692;2023-05-29T07:46:36;9.15;;;5.10;;
12410;SDS011;6269;51.044;13.692;2023-05-29T07:49:34;8.77;;;4.78;;
12410;SDS011;6269;51.044;13.692;2023-05-29T07:52:10;7.68;;;4.25;;
12410;SDS011;6269;51.044;13.692;2023-05-29T07:54:46;7.60;;;4.70;;
12410;SDS011;6269;51.044;13.692;2023-05-29T07:57:21;8.38;;;4.50;;
12410;SDS011;6269;51.044;13.692;2023-05-29T08:00:01;7.68;;;5.13;;
12410;SDS011;6269;51.044;13.692;2023-05-29T08:02:49;8.75;;;5.05;;
12410;SDS011;6269;51.044;13.692;2023-05-29T08:05:31;5.32;;;4.65;;
12410;SDS011;6269;51.044;13.692;2023-05-29T08:08:12;5.88;;;5.07;;
12410;SDS011;6269;51.044;13.692;2023-05-29T08:10:47;9.27;;;5.43;;
12410;SDS011;6269;51.044;13.692;2023-05-29T08:13:24;7.65;;;5.20;;
12410;SDS011;6269;51.044;13.692;2023-05-29T08:16:24;8.38;;;5.20;;
12410;SDS011;6269;51.044;13.692;2023-05-29T08:19:00;5.80;;;5.20;;
12410;SDS011;6269;51.044;13.692;2023-05-29T08:21:35;7.97;;;5.20;;
12410;SDS011;6269;51.044;13.692;2023-05-29T08:24:11;6.30;;;4.80;;
12410;SDS011;6269;51.044;13.692;2023-05-29T08:26:46;5.72;;;4.78;;
12410;SDS011;6269;51.044;13.692;2023-05-29T08:29:21;7.05;;;4.53;;
12410;SDS011;6269;51.044;13.692;2023-05-29T08:31:59;9.02;;;5.35;;
12410;SDS011;6269;51.044;13.692;2023-05-29T08:34:35;6.07;;;4.68;;
12410;SDS011;6269;51.044;13.692;2023-05-29T08:37:10;8.55;;;4.50;;
12410;SDS011;6269;51.044;13.692;2023-05-29T08:39:45;5.85;;;4.40;;
12410;SDS011;6269;51.044;13.692;2023-05-29T08:42:21;7.88;;;4.38;;
12410;SDS011;6269;51.044;13.692;2023-05-29T08:45:05;5.72;;;2.90;;
12410;SDS011;6269;51.044;13.692;2023-05-29T08:47:46;3.53;;;2.92;;
12410;SDS011;6269;51.044;13.692;2023-05-29T08:50:27;6.13;;;2.47;;
12410;SDS011;6269;51.044;13.692;2023-05-29T08:53:03;4.13;;;2.90;;
12410;SDS011;6269;51.044;13.692;2023-05-29T08:55:38;4.13;;;3.10;;
12410;SDS011;6269;51.044;13.692;2023-05-29T08:58:14;4.65;;;3.30;;
12410;SDS011;6269;51.044;13.692;2023-05-29T09:00:49;4.60;;;3.60;;
12410;SDS011;6269;51.044;13.692;2023-05-29T09:03:28;4.53;;;3.63;;
12410;SDS011;6269;51.044;13.692;2023-05-29T09:06:04;7.00;;;3.03;;
12410;SDS011;6269;51.044;13.692;2023-05-29T09:08:40;6.25;;;3.38;;
12410;SDS011;6269;51.044;13.692;2023-05-29T09:11:15;6.18;;;2.80;;
12410;SDS011;6269;51.044;13.692;2023-05-29T09:13:51;4.40;;;3.53;;
12410;SDS011;6269;51.044;13.692;2023-05-29T09:16:29;7.28;;;2.90;;
12410;SDS011;6269;51.044;13.692;2023-05-29T09:19:07;5.47;;;3.00;;
12410;SDS011;6269;51.044;13.692;2023-05-29T09:21:44;5.90;;;2.67;;
12410;SDS011;6269;51.044;13.692;2023-05-29T09:24:19;5.90;;;3.10;;
12410;SDS011;6269;51.044;13.692;2023-05-29T09:26:55;5.15;;;3.03;;
